Strandquist, MN (56758)

15:28 CDT le 20 août 2014 (GMT -0500)
RAWS KITTSON MN US | Change Station
CLOSE
Current Station
Stations météorologiques personnelles
Location: Karlstad, MN
Altitude: 1060 ft
Stations météo à proximité

Alt. 1060 ft 48.59 °N, 96.49 °W | Updated 56 minutes ago

Scattered Clouds
Nuages épars
82 ° F
Paraît 83 ° F
N
8
Vent Variable Vent de SE
Gusts 16.0 mph

Aujourd'hui
Haut(e) -- | Bas -- ° F
--% Risque de précip.
Hier
Haut(e) -- | Bas -- ° F
Precip. -- pouce
6:26 AM 8:30 PM
Lune descendante, 19% visible
Pression 29.82 pouce
Visibilité 10.0 Miles terrestres
Nuages Nuages épars 5000 ft
indice de chaleur 83 ° F
Point de rosée 63 ° F
Humidité 53%
Précipitations 0.00 pouce
Profondeur de la couche neigeuse Non disponible.
UV 6 sur 12
Pollen 10.70 sur 12
Qualité de l'air Non disponible.
Flu Activity Non disponible.
METAR KTVF 202015Z AUTO 13007KT 10SM SCT050 27/17 A2982 RMK AO1

More Conditions Fewer Conditions

Pression 29.82 pouce
Visibilité 10.0 Miles terrestres
Nuages Nuages épars 5000 ft
indice de chaleur 83 ° F
Point de rosée 63 ° F
Humidité 53%
Précipitations 0.00 pouce
Profondeur de la couche neigeuse Non disponible.
UV 6 sur 12
Pollen 10.70 sur 12
Qualité de l'air Non disponible.
Flu Activity Non disponible.
METAR KTVF 202015Z AUTO 13007KT 10SM SCT050 27/17 A2982 RMK AO1

More Conditions Fewer Conditions

10-Day Weather Forecast

Almanac

Astronomie

Aug. 20, 2014 Lever Coucher
Temps réel 06:26 CDT 20:30 CDT
Crépuscule civil 05:52 CDT 21:04 CDT
Crépuscule nautique 05:10 CDT 21:46 CDT
Crépuscule astronomique 04:23 CDT 22:33 CDT
Lune 01:58 CDT 17:25 CDT
Durée de lumière visible 15h 12m
Longueur du jour
14h 04m
Tomorrow will be 3m 16s shorter.
Lune descendante, 19% of the Moon is Illuminated
Aujourd'hui
Lune descendante
août 25
Nouveau
Sep 2
Premier quartier
Sep 8
Pleine lune
Sep 15
Dernier quartier

Extrêmes aujourd'hui

State Highs State Lows

Community

WunderPhotos

Upload Photos

1,745,750 Photos téléchargées !

WunderBlogs® & News

By Dr. Jeff Masters
Director of Meteorology, Weather Underground
By Kari Strenfel
Meteorologist, Weather Underground
By Christopher C. Burt
Weather Historian, Weather Underground
August 20, 2014
August 20, 2014
August 20, 2014

Nearby

Épaisseur de neige

Station Depth Altitude
Pas de nouvelles chutes de neige

Activité sismique

Ville Distance Mag. Time & Date
No recent earthquake activity has been reported nearby.
Minimum magnitude displayed is 2.5.

Températures des eaux côtières

Lieu Température
Aucun rapport de station

Stations météo à proximité